Aviation Digital Data Service (ADDS)

Output produced by METARs form (1821 UTC 22 November 2017)
found at http://www.aviationweather.gov/adds/metars/
 
KHBG 221726Z 2218/2318 36010G17KT P6SM FEW250 
     FM222300 36006KT P6SM SKC
       
KHIE 221738Z 2218/2318 VRB03KT P6SM -RA BKN035 
     FM222000 32004KT 5SM -RASN BR BKN025 
     FM230000 30010KT P6SM -SHSN BKN025 
     FM230600 29004KT P6SM BKN040
       
TAF KHIF 221301Z 2213/2319 10009KT 9999 BKN070 OVC100 610709 QNH3038INS 
     BECMG 2217/2218 30009KT 9999 BKN100 QNH3040INS 
     BECMG 2303/2304 11009KT 9999 SCT100 BKN250 QNH3039INS 
     BECMG 2317/2318 30009KT 9999 BKN080 OVC250 610806 QNH3036INS TX13/2221Z TN05/2214Z
       
KHIO 221734Z 2218/2318 13005KT 1SM -RA BR BKN005 OVC035 
     TEMPO 2218/2221 6SM -RA SCT005 OVC035 
     FM222100 16005KT 6SM -RA SCT010 BKN035 OVC050 
     FM230000 16005KT 6SM -RADZ BR BKN025 OVC035 
     FM230600 18008KT 4SM -RA BR BKN020 OVC035
       
KHKS 221726Z 2218/2318 01010G16KT P6SM SKC 
     FM222300 35007KT P6SM SKC
       
KHKY 221720Z 2218/2318 32010G15KT P6SM FEW250 
     FM222200 01005KT P6SM SCT250 
     FM230500 VRB03KT P6SM SCT250
       
KHLG 221722Z 2218/2318 32009KT P6SM BKN035 
     TEMPO 2218/2221 BKN025 
     FM230000 32006KT P6SM SCT040
       
KHLN 221741Z 2218/2318 20006KT P6SM BKN200 
     FM231200 VRB05KT P6SM SCT100
       
TAF AMD KHMN 221255Z 2212/2318 VRB06KT 9999 FEW250 QNH3034INS 
     BECMG 2216/2217 33009KT 9999 FEW250 QNH3041INS 
     BECMG 2303/2304 VRB06KT 9999 FEW250 QNH3037INS TX16/2221Z TN04/2212Z
       
KHND 221720Z 2218/2318 VRB04KT P6SM SKC 
     FM230300 18006KT P6SM SKC
       
KHOB 221720Z 2218/2318 20007KT P6SM SCT200 
     FM230900 32005KT P6SM SCT200
       
KHON 221737Z 2218/2318 18012G18KT P6SM BKN150 
     FM222200 20008KT P6SM SCT250 
     FM230200 28008KT P6SM FEW250 
     FM231500 17004KT P6SM FEW200
       
TAF KHOP 221600Z 2216/2322 01009KT 9999 FEW200 QNH3005INS WND VRB06KT AFT 2222 TX07/2221Z TNM03/2312Z
       
KHOT 221720Z 2218/2318 05009KT P6SM FEW250 
     FM230000 VRB02KT P6SM SKC 
     FM231500 23005KT P6SM SKC
       
KHOU 221723Z 2218/2318 02010KT P6SM FEW028 
     FM230500 36005KT P6SM SKC 
     FM231500 01008KT P6SM SKC
       
KHPN 221730Z 2218/2318 30013KT P6SM BKN050 
     FM221900 32015G23KT P6SM SCT060 
     TEMPO 2219/2220 BKN060 
     FM222300 32015G23KT P6SM SKC 
     FM230300 32011KT P6SM SKC 
     FM230700 32006KT P6SM SKC AMD NOT SKED
       
KHQM 221729Z 2218/2318 15019G24KT 3SM -RA BR SCT009 BKN014 OVC019 
     FM222000 15014G26KT 6SM BR OVC019 
     FM230000 17021G28KT 6SM -SHRA OVC009 
     FM230500 19017G27KT 5SM -SHRA OVC009 
     FM231300 21013KT 5SM -SHRA BKN015 OVC030
       
KHRL 221723Z 2218/2318 35018G25KT P6SM BKN025 
     FM230000 34008KT P6SM SKC
       
KHRO 221720Z 2218/2318 VRB05KT P6SM FEW250 
     FM231300 21007KT P6SM SKC
       
TAF KHST 221600Z 2216/2322 06009KT 9999 FEW050 QNH2988INS 
     BECMG 2304/2305 09006KT 9999 BKN020 QNH2990INS 
     BECMG 2314/2315 13012KT 9999 BKN030 QNH2984INS TX27/2219Z TN20/2310Z
       
KHSV 221720Z 2218/2318 01010G15KT P6SM FEW250 
     FM222200 36008KT P6SM SKC 
     FM230900 03005KT P6SM SKC
       
KHTS 221728Z 2218/2318 34005KT P6SM SCT035 
     FM222000 34004KT P6SM FEW250
       
KHUF 221720Z 2218/2318 33005KT P6SM SKC 
     FM230200 VRB03KT P6SM BKN150 
     FM231400 20006KT P6SM SCT090
       
KHUM 221720Z 2218/2318 02012KT P6SM BKN120 
     FM221900 02012KT P6SM FEW120 SCT250 
     FM230900 36008KT P6SM SKC
       
KHUT 221725Z 2218/2318 21010KT P6SM SCT250 
     FM231300 33008KT P6SM SCT250
       
KHVR 221741Z 2218/2318 24015G24KT P6SM BKN110 
     FM222300 24010KT P6SM SCT080 BKN150 
     FM230600 23015KT P6SM SCT100 BKN150
       
KHYA 221734Z 2218/2318 01006KT 2SM -RA BR OVC035 
     FM221900 03005KT 3SM -RA BR BKN015 
     FM222200 33016G28KT P6SM VCSH BKN025 
     FM230200 33017G31KT P6SM SCT250 
     FM230500 33015G25KT P6SM SKC 
     FM230600 33013KT P6SM SKC
       
KHYR 221720Z 2218/2318 19010KT P6SM FEW020 BKN150 
     FM230000 19007KT 4SM -SN OVC040 
     TEMPO 2302/2304 2SM -SN OVC025 
     FM230600 VRB03KT P6SM SCT050
       
KHYS 221720Z 2218/2318 20013G23KT P6SM SCT250 
     FM230000 21007KT P6SM SCT250 
     FM230900 31006KT P6SM SCT250
       
KHUL 221729Z 2218/2318 VRB03KT P6SM VCSH OVC070 
     FM222100 VRB02KT 5SM -RA OVC025 
     FM222200 VRB02KT 3SM -RA OVC008 
     FM230100 34009KT 1SM -SN OVC003 
     FM230600 33013G22KT P6SM OVC015 
     FM230900 32013G22KT P6SM SCT250